sensor_id;sensor_type;location;lat;lon;timestamp;pressure;altitude;pressure_sealevel;temperature;humidity
41254;BME280;26987;59.928;30.306;2023-07-13T00:00:59;100417.22;;;16.45;59.96
41254;BME280;26987;59.928;30.306;2023-07-13T00:03:27;100422.44;;;16.51;59.74
41254;BME280;26987;59.928;30.306;2023-07-13T00:06:01;100426.78;;;16.52;59.94
41254;BME280;26987;59.928;30.306;2023-07-13T00:08:31;100421.94;;;16.55;59.81
41254;BME280;26987;59.928;30.306;2023-07-13T00:11:00;100415.69;;;16.54;59.73
41254;BME280;26987;59.928;30.306;2023-07-13T00:13:28;100421.69;;;16.56;59.95
41254;BME280;26987;59.928;30.306;2023-07-13T00:15:58;100407.06;;;16.57;60.38
41254;BME280;26987;59.928;30.306;2023-07-13T00:18:27;100402.16;;;16.54;60.63
41254;BME280;26987;59.928;30.306;2023-07-13T00:20:56;100414.94;;;16.59;60.95
41254;BME280;26987;59.928;30.306;2023-07-13T00:23:31;100412.47;;;16.57;61.29
41254;BME280;26987;59.928;30.306;2023-07-13T00:26:00;100410.03;;;16.56;61.84
41254;BME280;26987;59.928;30.306;2023-07-13T00:28:28;100401.38;;;16.54;62.32
41254;BME280;26987;59.928;30.306;2023-07-13T00:30:58;100395.38;;;16.51;62.85
41254;BME280;26987;59.928;30.306;2023-07-13T00:33:27;100381.94;;;16.34;63.35
41254;BME280;26987;59.928;30.306;2023-07-13T00:35:56;100396.41;;;16.45;63.64
41254;BME280;26987;59.928;30.306;2023-07-13T00:38:26;100387.50;;;16.50;63.79
41254;BME280;26987;59.928;30.306;2023-07-13T00:40:55;100392.69;;;16.51;63.47
41254;BME280;26987;59.928;30.306;2023-07-13T00:43:25;100322.44;;;16.07;63.33
41254;BME280;26987;59.928;30.306;2023-07-13T00:46:21;100385.13;;;16.54;63.34
41254;BME280;26987;59.928;30.306;2023-07-13T00:48:50;100382.28;;;16.43;63.56
41254;BME280;26987;59.928;30.306;2023-07-13T00:51:24;100370.31;;;16.34;63.73
41254;BME280;26987;59.928;30.306;2023-07-13T00:53:56;100381.13;;;16.34;63.82
41254;BME280;26987;59.928;30.306;2023-07-13T00:56:24;100376.53;;;16.34;64.36
41254;BME280;26987;59.928;30.306;2023-07-13T00:58:53;100383.28;;;16.32;64.85
41254;BME280;26987;59.928;30.306;2023-07-13T01:01:22;100377.84;;;16.32;64.95
41254;BME280;26987;59.928;30.306;2023-07-13T01:03:50;100364.16;;;16.16;64.83
41254;BME280;26987;59.928;30.306;2023-07-13T01:06:20;100362.97;;;16.29;65.35
41254;BME280;26987;59.928;30.306;2023-07-13T01:08:48;100356.19;;;16.26;65.44
41254;BME280;26987;59.928;30.306;2023-07-13T01:11:19;100353.47;;;16.26;65.36
41254;BME280;26987;59.928;30.306;2023-07-13T01:13:49;100357.22;;;16.25;65.55
41254;BME280;26987;59.928;30.306;2023-07-13T01:16:22;100343.97;;;16.24;65.46
41254;BME280;26987;59.928;30.306;2023-07-13T01:18:53;100357.22;;;16.25;65.01
41254;BME280;26987;59.928;30.306;2023-07-13T01:21:27;100359.13;;;16.25;65.28
41254;BME280;26987;59.928;30.306;2023-07-13T01:23:55;100370.50;;;16.27;65.14
41254;BME280;26987;59.928;30.306;2023-07-13T01:26:23;100338.91;;;16.05;64.70
41254;BME280;26987;59.928;30.306;2023-07-13T01:28:51;100361.78;;;16.20;64.76
41254;BME280;26987;59.928;30.306;2023-07-13T01:31:19;100361.59;;;16.26;65.62
41254;BME280;26987;59.928;30.306;2023-07-13T01:33:47;100351.81;;;16.25;65.73
41254;BME280;26987;59.928;30.306;2023-07-13T01:36:15;100336.50;;;16.09;65.65
41254;BME280;26987;59.928;30.306;2023-07-13T01:38:44;100343.66;;;16.20;65.73
41254;BME280;26987;59.928;30.306;2023-07-13T01:41:12;100346.91;;;16.22;65.96
41254;BME280;26987;59.928;30.306;2023-07-13T01:43:40;100352.84;;;16.19;66.23
41254;BME280;26987;59.928;30.306;2023-07-13T01:46:08;100345.22;;;16.16;65.90
41254;BME280;26987;59.928;30.306;2023-07-13T01:48:36;100352.34;;;16.22;65.39
41254;BME280;26987;59.928;30.306;2023-07-13T01:51:04;100348.56;;;16.23;65.49
41254;BME280;26987;59.928;30.306;2023-07-13T01:53:32;100346.66;;;16.24;64.96
41254;BME280;26987;59.928;30.306;2023-07-13T01:56:03;100335.50;;;16.15;64.65
41254;BME280;26987;59.928;30.306;2023-07-13T01:58:31;100349.88;;;16.21;64.68
41254;BME280;26987;59.928;30.306;2023-07-13T02:00:59;100348.56;;;16.23;64.71
41254;BME280;26987;59.928;30.306;2023-07-13T02:03:28;100347.75;;;16.23;64.92
41254;BME280;26987;59.928;30.306;2023-07-13T02:05:58;100345.63;;;16.25;64.91
41254;BME280;26987;59.928;30.306;2023-07-13T02:08:26;100340.72;;;16.22;65.09
41254;BME280;26987;59.928;30.306;2023-07-13T02:10:54;100344.22;;;16.22;65.32
41254;BME280;26987;59.928;30.306;2023-07-13T02:13:24;100343.16;;;16.23;64.96
41254;BME280;26987;59.928;30.306;2023-07-13T02:15:52;100336.09;;;16.22;64.87
41254;BME280;26987;59.928;30.306;2023-07-13T02:18:20;100335.66;;;16.31;64.81
41254;BME280;26987;59.928;30.306;2023-07-13T02:20:48;100333.75;;;16.31;64.40
41254;BME280;26987;59.928;30.306;2023-07-13T02:23:16;100333.56;;;16.38;64.36
41254;BME280;26987;59.928;30.306;2023-07-13T02:25:46;100328.97;;;16.38;64.14
41254;BME280;26987;59.928;30.306;2023-07-13T02:28:15;100333.09;;;16.46;64.12
41254;BME280;26987;59.928;30.306;2023-07-13T02:30:45;100332.88;;;16.53;64.34
41254;BME280;26987;59.928;30.306;2023-07-13T02:33:13;100338.03;;;16.55;63.85
41254;BME280;26987;59.928;30.306;2023-07-13T02:35:41;100334.56;;;16.59;63.87
41254;BME280;26987;59.928;30.306;2023-07-13T02:38:09;100337.56;;;16.63;63.52
41254;BME280;26987;59.928;30.306;2023-07-13T02:40:37;100340.06;;;16.70;63.26
41254;BME280;26987;59.928;30.306;2023-07-13T02:43:05;100346.03;;;16.72;62.86
41254;BME280;26987;59.928;30.306;2023-07-13T02:45:33;100350.63;;;16.71;62.88
41254;BME280;26987;59.928;30.306;2023-07-13T02:48:02;100355.19;;;16.66;63.01
41254;BME280;26987;59.928;30.306;2023-07-13T02:50:31;100336.72;;;16.57;63.28
41254;BME280;26987;59.928;30.306;2023-07-13T02:52:59;100351.59;;;16.60;63.38
41254;BME280;26987;59.928;30.306;2023-07-13T02:55:27;100355.91;;;16.56;63.65
41254;BME280;26987;59.928;30.306;2023-07-13T02:57:55;100349.69;;;16.55;64.05
41254;BME280;26987;59.928;30.306;2023-07-13T03:00:23;100341.00;;;16.53;64.51
41254;BME280;26987;59.928;30.306;2023-07-13T03:02:51;100338.88;;;16.55;64.62
41254;BME280;26987;59.928;30.306;2023-07-13T03:05:21;100322.50;;;16.45;64.56
41254;BME280;26987;59.928;30.306;2023-07-13T03:07:50;100342.97;;;16.63;64.37
41254;BME280;26987;59.928;30.306;2023-07-13T03:10:18;100348.44;;;16.68;64.34
41254;BME280;26987;59.928;30.306;2023-07-13T03:12:49;100350.13;;;16.74;64.29
41254;BME280;26987;59.928;30.306;2023-07-13T03:15:23;100348.22;;;16.75;64.55
41254;BME280;26987;59.928;30.306;2023-07-13T03:17:54;100355.63;;;16.85;63.86
41254;BME280;26987;59.928;30.306;2023-07-13T03:20:23;100352.84;;;16.80;63.82
41254;BME280;26987;59.928;30.306;2023-07-13T03:22:51;100338.06;;;16.60;62.63
41254;BME280;26987;59.928;30.306;2023-07-13T03:25:20;100325.19;;;16.39;63.53
41254;BME280;26987;59.928;30.306;2023-07-13T03:27:49;100350.72;;;16.49;63.81
41254;BME280;26987;59.928;30.306;2023-07-13T03:30:17;100350.38;;;16.40;64.30
41254;BME280;26987;59.928;30.306;2023-07-13T03:32:45;100357.59;;;16.34;64.67
41254;BME280;26987;59.928;30.306;2023-07-13T03:35:13;100355.88;;;16.23;64.40
41254;BME280;26987;59.928;30.306;2023-07-13T03:37:42;100345.94;;;16.06;64.73
41254;BME280;26987;59.928;30.306;2023-07-13T03:40:14;100341.47;;;15.95;63.65
41254;BME280;26987;59.928;30.306;2023-07-13T03:42:44;100375.69;;;16.06;61.67
41254;BME280;26987;59.928;30.306;2023-07-13T03:45:16;100356.44;;;16.02;61.42
41254;BME280;26987;59.928;30.306;2023-07-13T03:47:44;100357.34;;;16.08;60.71
41254;BME280;26987;59.928;30.306;2023-07-13T03:50:12;100347.91;;;16.11;59.02
41254;BME280;26987;59.928;30.306;2023-07-13T03:52:42;100348.69;;;16.34;58.36
41254;BME280;26987;59.928;30.306;2023-07-13T03:55:15;100333.59;;;16.43;57.71
41254;BME280;26987;59.928;30.306;2023-07-13T03:57:44;100336.53;;;16.69;56.56
41254;BME280;26987;59.928;30.306;2023-07-13T04:00:13;100322.72;;;17.03;54.40
41254;BME280;26987;59.928;30.306;2023-07-13T04:02:44;100333.50;;;17.95;52.51
41254;BME280;26987;59.928;30.306;2023-07-13T04:05:14;100328.44;;;18.40;49.60
41254;BME280;26987;59.928;30.306;2023-07-13T04:07:46;100339.59;;;18.75;49.63
41254;BME280;26987;59.928;30.306;2023-07-13T04:10:14;100353.16;;;19.27;47.23
41254;BME280;26987;59.928;30.306;2023-07-13T04:12:42;100341.75;;;19.31;46.11
41254;BME280;26987;59.928;30.306;2023-07-13T04:15:10;100351.81;;;19.35;45.77
41254;BME280;26987;59.928;30.306;2023-07-13T04:17:38;100330.53;;;20.19;43.73
41254;BME280;26987;59.928;30.306;2023-07-13T04:20:07;100334.13;;;20.84;42.24
41254;BME280;26987;59.928;30.306;2023-07-13T04:22:35;100337.75;;;21.58;40.47
41254;BME280;26987;59.928;30.306;2023-07-13T04:25:05;100331.78;;;22.00;39.84
41254;BME280;26987;59.928;30.306;2023-07-13T04:27:33;100310.06;;;21.70;39.89
41254;BME280;26987;59.928;30.306;2023-07-13T04:30:01;100324.91;;;22.41;38.60
41254;BME280;26987;59.928;30.306;2023-07-13T04:32:29;100318.59;;;22.93;38.03
41254;BME280;26987;59.928;30.306;2023-07-13T04:34:57;100330.59;;;23.39;36.88
41254;BME280;26987;59.928;30.306;2023-07-13T04:37:26;100332.03;;;24.16;35.59
41254;BME280;26987;59.928;30.306;2023-07-13T04:39:55;100329.94;;;24.36;34.30
41254;BME280;26987;59.928;30.306;2023-07-13T04:42:25;100333.44;;;23.76;34.63
41254;BME280;26987;59.928;30.306;2023-07-13T04:44:53;100336.06;;;23.39;34.89
41254;BME280;26987;59.928;30.306;2023-07-13T04:47:21;100314.13;;;22.83;35.72
41254;BME280;26987;59.928;30.306;2023-07-13T04:49:49;100317.09;;;23.01;35.97
41254;BME280;26987;59.928;30.306;2023-07-13T04:52:17;100333.91;;;23.78;34.41
41254;BME280;26987;59.928;30.306;2023-07-13T04:54:45;100331.28;;;24.93;32.46
41254;BME280;26987;59.928;30.306;2023-07-13T04:57:13;100329.34;;;25.66;31.83
41254;BME280;26987;59.928;30.306;2023-07-13T04:59:42;100327.75;;;27.19;29.44
41254;BME280;26987;59.928;30.306;2023-07-13T05:02:10;100322.25;;;27.79;28.60
41254;BME280;26987;59.928;30.306;2023-07-13T05:04:38;100317.47;;;29.37;26.23
41254;BME280;26987;59.928;30.306;2023-07-13T05:07:06;100331.34;;;29.78;25.88
41254;BME280;26987;59.928;30.306;2023-07-13T05:09:34;100336.53;;;29.04;25.65
41254;BME280;26987;59.928;30.306;2023-07-13T05:12:02;100335.28;;;27.91;27.70
41254;BME280;26987;59.928;30.306;2023-07-13T05:14:30;100334.00;;;27.89;27.53
41254;BME280;26987;59.928;30.306;2023-07-13T05:17:00;100335.84;;;28.06;27.29
41254;BME280;26987;59.928;30.306;2023-07-13T05:19:28;100332.22;;;28.36;26.85
41254;BME280;26987;59.928;30.306;2023-07-13T05:21:56;100319.66;;;27.53;28.12
41254;BME280;26987;59.928;30.306;2023-07-13T05:24:24;100324.19;;;26.53;29.08
41254;BME280;26987;59.928;30.306;2023-07-13T05:26:52;100319.63;;;25.19;31.12
41254;BME280;26987;59.928;30.306;2023-07-13T05:29:20;100316.44;;;24.39;32.52
41254;BME280;26987;59.928;30.306;2023-07-13T05:31:49;100312.59;;;23.52;34.21
41254;BME280;26987;59.928;30.306;2023-07-13T05:34:18;100321.16;;;23.31;34.94
41254;BME280;26987;59.928;30.306;2023-07-13T05:36:46;100319.72;;;22.92;35.67
41254;BME280;26987;59.928;30.306;2023-07-13T05:39:14;100305.53;;;22.56;36.45
41254;BME280;26987;59.928;30.306;2023-07-13T05:41:42;100320.16;;;22.66;34.97
41254;BME280;26987;59.928;30.306;2023-07-13T05:44:10;100315.41;;;22.19;35.70
41254;BME280;26987;59.928;30.306;2023-07-13T05:46:38;100317.41;;;21.94;36.39
41254;BME280;26987;59.928;30.306;2023-07-13T05:49:06;100315.50;;;21.70;36.53
41254;BME280;26987;59.928;30.306;2023-07-13T05:51:35;100329.66;;;21.72;36.63
41254;BME280;26987;59.928;30.306;2023-07-13T05:54:03;100325.03;;;21.48;37.36
41254;BME280;26987;59.928;30.306;2023-07-13T05:56:31;100320.34;;;21.29;37.67
41254;BME280;26987;59.928;30.306;2023-07-13T05:58:59;100323.47;;;21.42;38.28
41254;BME280;26987;59.928;30.306;2023-07-13T06:01:29;100312.38;;;21.33;37.08
41254;BME280;26987;59.928;30.306;2023-07-13T06:03:57;100321.78;;;21.22;38.10
41254;BME280;26987;59.928;30.306;2023-07-13T06:06:25;100321.63;;;21.13;38.52
41254;BME280;26987;59.928;30.306;2023-07-13T06:08:55;100318.19;;;21.26;38.10
41254;BME280;26987;59.928;30.306;2023-07-13T06:11:24;100320.09;;;21.50;37.57
41254;BME280;26987;59.928;30.306;2023-07-13T06:13:52;100313.94;;;21.64;37.64
41254;BME280;26987;59.928;30.306;2023-07-13T06:16:20;100311.25;;;21.83;37.33
41254;BME280;26987;59.928;30.306;2023-07-13T06:18:48;100298.59;;;21.92;37.52
41254;BME280;26987;59.928;30.306;2023-07-13T06:21:18;100303.81;;;21.89;37.67
41254;BME280;26987;59.928;30.306;2023-07-13T06:23:48;100322.47;;;22.01;37.68
41254;BME280;26987;59.928;30.306;2023-07-13T06:26:18;100316.88;;;21.92;38.17
41254;BME280;26987;59.928;30.306;2023-07-13T06:28:46;100324.47;;;21.95;38.20
41254;BME280;26987;59.928;30.306;2023-07-13T06:31:15;100322.91;;;21.89;38.46
41254;BME280;26987;59.928;30.306;2023-07-13T06:33:43;100322.53;;;21.76;39.07
41254;BME280;26987;59.928;30.306;2023-07-13T06:36:11;100317.16;;;21.66;39.22
41254;BME280;26987;59.928;30.306;2023-07-13T06:38:39;100292.75;;;21.55;40.02
41254;BME280;26987;59.928;30.306;2023-07-13T06:41:08;100333.19;;;21.97;39.89
41254;BME280;26987;59.928;30.306;2023-07-13T06:43:37;100335.84;;;22.02;40.35
41254;BME280;26987;59.928;30.306;2023-07-13T06:46:05;100336.22;;;22.15;40.57
41254;BME280;26987;59.928;30.306;2023-07-13T06:48:33;100331.25;;;22.17;40.37
41254;BME280;26987;59.928;30.306;2023-07-13T06:51:02;100334.06;;;22.12;40.21
41254;BME280;26987;59.928;30.306;2023-07-13T06:53:30;100335.31;;;22.20;40.06
41254;BME280;26987;59.928;30.306;2023-07-13T06:55:58;100341.22;;;22.27;40.00
41254;BME280;26987;59.928;30.306;2023-07-13T06:58:26;100342.09;;;22.41;39.86
41254;BME280;26987;59.928;30.306;2023-07-13T07:00:55;100355.88;;;22.50;39.79
41254;BME280;26987;59.928;30.306;2023-07-13T07:03:23;100353.25;;;22.45;39.79
41254;BME280;26987;59.928;30.306;2023-07-13T07:05:52;100342.75;;;22.52;39.56
41254;BME280;26987;59.928;30.306;2023-07-13T07:08:20;100355.44;;;22.43;39.86
41254;BME280;26987;59.928;30.306;2023-07-13T07:10:47;100353.91;;;22.37;40.31
41254;BME280;26987;59.928;30.306;2023-07-13T07:13:20;100355.69;;;22.47;39.94
41254;BME280;26987;59.928;30.306;2023-07-13T07:15:49;100357.16;;;22.58;39.99
41254;BME280;26987;59.928;30.306;2023-07-13T07:18:19;100360.44;;;22.55;40.26
41254;BME280;26987;59.928;30.306;2023-07-13T07:20:48;100344.94;;;22.50;39.88
41254;BME280;26987;59.928;30.306;2023-07-13T07:23:16;100364.28;;;22.54;39.82
41254;BME280;26987;59.928;30.306;2023-07-13T07:25:45;100369.09;;;22.43;40.31
41254;BME280;26987;59.928;30.306;2023-07-13T07:28:15;100360.72;;;22.39;39.94
41254;BME280;26987;59.928;30.306;2023-07-13T07:30:44;100362.97;;;22.51;40.23
41254;BME280;26987;59.928;30.306;2023-07-13T07:33:12;100347.06;;;22.59;40.45
41254;BME280;26987;59.928;30.306;2023-07-13T07:35:42;100383.66;;;22.91;40.50
41254;BME280;26987;59.928;30.306;2023-07-13T07:38:10;100388.75;;;22.98;40.44
41254;BME280;26987;59.928;30.306;2023-07-13T07:40:39;100383.72;;;23.05;40.14
41254;BME280;26987;59.928;30.306;2023-07-13T07:43:09;100384.66;;;23.14;40.29
41254;BME280;26987;59.928;30.306;2023-07-13T07:45:37;100380.78;;;23.15;40.22
41254;BME280;26987;59.928;30.306;2023-07-13T07:48:06;100386.66;;;23.09;40.44
41254;BME280;26987;59.928;30.306;2023-07-13T07:50:36;100383.44;;;23.21;40.79
41254;BME280;26987;59.928;30.306;2023-07-13T07:53:06;100384.69;;;23.28;39.84
41254;BME280;26987;59.928;30.306;2023-07-13T07:55:36;100388.69;;;23.17;40.23
41254;BME280;26987;59.928;30.306;2023-07-13T07:58:04;100382.81;;;23.10;40.08
41254;BME280;26987;59.928;30.306;2023-07-13T08:00:33;100376.63;;;23.04;39.84
41254;BME280;26987;59.928;30.306;2023-07-13T08:03:02;100386.28;;;23.29;39.90
41254;BME280;26987;59.928;30.306;2023-07-13T08:05:30;100382.44;;;23.30;39.65
41254;BME280;26987;59.928;30.306;2023-07-13T08:07:58;100375.50;;;23.38;39.64
41254;BME280;26987;59.928;30.306;2023-07-13T08:10:27;100359.66;;;23.35;39.53
41254;BME280;26987;59.928;30.306;2023-07-13T08:12:55;100374.78;;;23.61;39.82
41254;BME280;26987;59.928;30.306;2023-07-13T08:15:23;100376.59;;;23.51;39.75
41254;BME280;26987;59.928;30.306;2023-07-13T08:17:51;100377.81;;;23.59;39.43
41254;BME280;26987;59.928;30.306;2023-07-13T08:20:19;100374.78;;;23.61;38.93
41254;BME280;26987;59.928;30.306;2023-07-13T08:22:47;100373.16;;;23.74;39.15
41254;BME280;26987;59.928;30.306;2023-07-13T08:25:15;100379.38;;;24.02;38.96
41254;BME280;26987;59.928;30.306;2023-07-13T08:27:44;100385.09;;;23.92;38.54
41254;BME280;26987;59.928;30.306;2023-07-13T08:30:12;100372.91;;;23.98;38.09
41254;BME280;26987;59.928;30.306;2023-07-13T08:32:40;100372.72;;;23.94;38.40
41254;BME280;26987;59.928;30.306;2023-07-13T08:35:08;100380.09;;;24.22;37.93
41254;BME280;26987;59.928;30.306;2023-07-13T08:37:36;100381.66;;;24.37;38.32
41254;BME280;26987;59.928;30.306;2023-07-13T08:40:05;100377.53;;;24.40;37.87
41254;BME280;26987;59.928;30.306;2023-07-13T08:42:37;100382.28;;;24.34;37.82
41254;BME280;26987;59.928;30.306;2023-07-13T08:45:17;100374.69;;;24.31;38.04
41254;BME280;26987;59.928;30.306;2023-07-13T08:47:51;100386.09;;;24.24;38.30
41254;BME280;26987;59.928;30.306;2023-07-13T08:50:24;100364.00;;;24.06;38.74
41254;BME280;26987;59.928;30.306;2023-07-13T08:52:55;100383.06;;;23.98;39.14
41254;BME280;26987;59.928;30.306;2023-07-13T08:55:27;100371.53;;;23.87;39.17
41254;BME280;26987;59.928;30.306;2023-07-13T08:58:02;100379.03;;;23.81;39.52
41254;BME280;26987;59.928;30.306;2023-07-13T09:00:39;100377.69;;;23.78;39.93
41254;BME280;26987;59.928;30.306;2023-07-13T09:03:18;100373.16;;;23.60;40.47
41254;BME280;26987;59.928;30.306;2023-07-13T09:05:52;100367.47;;;23.56;40.59
41254;BME280;26987;59.928;30.306;2023-07-13T09:08:34;100373.88;;;23.79;40.18
41254;BME280;26987;59.928;30.306;2023-07-13T09:11:14;100365.06;;;23.83;40.73
41254;BME280;26987;59.928;30.306;2023-07-13T09:13:52;100364.44;;;23.72;40.23
41254;BME280;26987;59.928;30.306;2023-07-13T09:16:24;100350.66;;;23.49;40.27
41254;BME280;26987;59.928;30.306;2023-07-13T09:18:56;100339.34;;;23.55;40.58
41254;BME280;26987;59.928;30.306;2023-07-13T09:21:32;100366.06;;;23.87;39.99
41254;BME280;26987;59.928;30.306;2023-07-13T09:26:50;100365.84;;;23.83;39.83
41254;BME280;26987;59.928;30.306;2023-07-13T09:29:23;100354.31;;;23.58;41.88
41254;BME280;26987;59.928;30.306;2023-07-13T09:31:57;100355.94;;;23.45;42.93
41254;BME280;26987;59.928;30.306;2023-07-13T09:34:26;100358.53;;;23.36;43.36
41254;BME280;26987;59.928;30.306;2023-07-13T09:36:55;100359.38;;;23.37;43.02
41254;BME280;26987;59.928;30.306;2023-07-13T09:39:27;100354.91;;;23.41;42.66
41254;BME280;26987;59.928;30.306;2023-07-13T09:41:57;100348.66;;;23.40;42.80
41254;BME280;26987;59.928;30.306;2023-07-13T09:44:30;100357.84;;;23.59;43.33
41254;BME280;26987;59.928;30.306;2023-07-13T09:47:00;100349.97;;;23.57;43.24
41254;BME280;26987;59.928;30.306;2023-07-13T09:49:36;100364.63;;;23.75;42.89
41254;BME280;26987;59.928;30.306;2023-07-13T09:52:09;100347.03;;;23.53;42.11
41254;BME280;26987;59.928;30.306;2023-07-13T09:54:38;100357.97;;;23.53;43.04
41254;BME280;26987;59.928;30.306;2023-07-13T09:57:13;100356.84;;;23.54;42.47
41254;BME280;26987;59.928;30.306;2023-07-13T09:59:45;100352.50;;;23.39;42.64
41254;BME280;26987;59.928;30.306;2023-07-13T10:02:26;100343.38;;;23.44;42.85
41254;BME280;26987;59.928;30.306;2023-07-13T10:04:58;100349.03;;;23.34;43.20
41254;BME280;26987;59.928;30.306;2023-07-13T10:07:27;100352.50;;;23.39;43.20
41254;BME280;26987;59.928;30.306;2023-07-13T10:09:56;100355.03;;;23.50;43.37
41254;BME280;26987;59.928;30.306;2023-07-13T10:12:24;100359.19;;;23.47;43.35
41254;BME280;26987;59.928;30.306;2023-07-13T10:14:55;100333.63;;;23.24;44.47
41254;BME280;26987;59.928;30.306;2023-07-13T10:17:29;100349.75;;;23.39;44.12
41254;BME280;26987;59.928;30.306;2023-07-13T10:19:59;100357.75;;;23.36;43.29
41254;BME280;26987;59.928;30.306;2023-07-13T10:22:37;100348.09;;;23.24;42.99
41254;BME280;26987;59.928;30.306;2023-07-13T10:25:15;100359.97;;;23.34;43.19
41254;BME280;26987;59.928;30.306;2023-07-13T10:27:45;100361.28;;;23.22;42.51
41254;BME280;26987;59.928;30.306;2023-07-13T10:30:17;100358.72;;;23.26;42.17
41254;BME280;26987;59.928;30.306;2023-07-13T10:32:49;100356.50;;;23.14;42.59
41254;BME280;26987;59.928;30.306;2023-07-13T10:35:20;100309.28;;;22.94;41.78
41254;BME280;26987;59.928;30.306;2023-07-13T10:37:53;100355.00;;;23.36;41.66
41254;BME280;26987;59.928;30.306;2023-07-13T10:40:27;100353.31;;;23.54;41.91
41254;BME280;26987;59.928;30.306;2023-07-13T10:42:58;100357.53;;;23.60;41.44
41254;BME280;26987;59.928;30.306;2023-07-13T10:45:30;100346.63;;;23.46;41.55
41254;BME280;26987;59.928;30.306;2023-07-13T10:48:02;100315.47;;;23.14;42.19
41254;BME280;26987;59.928;30.306;2023-07-13T10:50:31;100361.75;;;23.24;41.93
41254;BME280;26987;59.928;30.306;2023-07-13T10:53:02;100356.06;;;23.06;41.84
41254;BME280;26987;59.928;30.306;2023-07-13T10:55:38;100366.19;;;22.92;42.07
41254;BME280;26987;59.928;30.306;2023-07-13T10:58:14;100363.50;;;22.73;42.34
41254;BME280;26987;59.928;30.306;2023-07-13T11:00:53;100370.59;;;22.88;42.38
41254;BME280;26987;59.928;30.306;2023-07-13T11:03:27;100354.31;;;22.83;41.94
41254;BME280;26987;59.928;30.306;2023-07-13T11:06:07;100370.81;;;22.91;41.96
41254;BME280;26987;59.928;30.306;2023-07-13T11:08:38;100369.28;;;22.85;41.69
41254;BME280;26987;59.928;30.306;2023-07-13T11:11:34;100360.66;;;23.11;40.95
41254;BME280;26987;59.928;30.306;2023-07-13T11:14:04;100356.03;;;22.92;40.53
41254;BME280;26987;59.928;30.306;2023-07-13T11:16:45;100344.72;;;22.99;40.19
41254;BME280;26987;59.928;30.306;2023-07-13T11:19:42;100363.84;;;23.61;39.49
41254;BME280;26987;59.928;30.306;2023-07-13T11:22:13;100362.03;;;23.42;39.64
41254;BME280;26987;59.928;30.306;2023-07-13T11:24:59;100368.09;;;23.67;38.90
41254;BME280;26987;59.928;30.306;2023-07-13T11:27:41;100366.97;;;23.68;39.33
41254;BME280;26987;59.928;30.306;2023-07-13T11:30:32;100369.78;;;23.77;39.58
41254;BME280;26987;59.928;30.306;2023-07-13T11:33:09;100358.59;;;23.64;41.42
41254;BME280;26987;59.928;30.306;2023-07-13T11:35:46;100358.75;;;23.68;41.64
41254;BME280;26987;59.928;30.306;2023-07-13T11:38:19;100369.22;;;23.66;41.90
41254;BME280;26987;59.928;30.306;2023-07-13T11:40:50;100272.53;;;23.00;42.29
41254;BME280;26987;59.928;30.306;2023-07-13T11:43:19;100368.63;;;23.69;42.34
41254;BME280;26987;59.928;30.306;2023-07-13T11:45:50;100361.59;;;23.77;41.99
41254;BME280;26987;59.928;30.306;2023-07-13T11:48:19;100368.88;;;23.81;41.31
41254;BME280;26987;59.928;30.306;2023-07-13T11:50:56;100380.81;;;24.00;41.22
41254;BME280;26987;59.928;30.306;2023-07-13T11:53:28;100385.00;;;23.83;41.32
41254;BME280;26987;59.928;30.306;2023-07-13T11:55:57;100386.72;;;23.65;42.09
41254;BME280;26987;59.928;30.306;2023-07-13T11:58:27;100385.63;;;23.66;42.18
41254;BME280;26987;59.928;30.306;2023-07-13T12:00:58;100394.25;;;23.59;42.96
41254;BME280;26987;59.928;30.306;2023-07-13T12:03:28;100382.78;;;23.43;43.37
41254;BME280;26987;59.928;30.306;2023-07-13T12:05:59;100392.72;;;23.53;43.55
41254;BME280;26987;59.928;30.306;2023-07-13T12:08:28;100390.78;;;23.39;44.04
41254;BME280;26987;59.928;30.306;2023-07-13T12:10:58;100385.88;;;23.22;44.72
41254;BME280;26987;59.928;30.306;2023-07-13T12:13:26;100382.50;;;23.11;45.79
41254;BME280;26987;59.928;30.306;2023-07-13T12:15:56;100384.59;;;23.00;45.88
41254;BME280;26987;59.928;30.306;2023-07-13T12:18:30;100388.22;;;23.15;45.79
41254;BME280;26987;59.928;30.306;2023-07-13T12:21:01;100388.28;;;23.10;45.79
41254;BME280;26987;59.928;30.306;2023-07-13T12:23:31;100387.16;;;23.11;45.73
41254;BME280;26987;59.928;30.306;2023-07-13T12:26:03;100375.72;;;23.09;46.56
41254;BME280;26987;59.928;30.306;2023-07-13T12:28:33;100374.88;;;22.94;47.87
41254;BME280;26987;59.928;30.306;2023-07-13T12:31:03;100391.28;;;22.94;49.40
41254;BME280;26987;59.928;30.306;2023-07-13T12:33:32;100385.56;;;22.76;50.06
41254;BME280;26987;59.928;30.306;2023-07-13T12:36:04;100380.50;;;22.84;50.08
41254;BME280;26987;59.928;30.306;2023-07-13T12:38:33;100385.97;;;22.84;49.52
41254;BME280;26987;59.928;30.306;2023-07-13T12:41:02;100384.25;;;22.88;49.97
41254;BME280;26987;59.928;30.306;2023-07-13T12:43:34;100355.78;;;22.75;50.27
41254;BME280;26987;59.928;30.306;2023-07-13T12:46:16;100374.38;;;22.92;50.38
41254;BME280;26987;59.928;30.306;2023-07-13T12:48:48;100372.00;;;22.71;50.50
41254;BME280;26987;59.928;30.306;2023-07-13T12:51:21;100381.22;;;22.75;50.83
41254;BME280;26987;59.928;30.306;2023-07-13T12:53:56;100387.69;;;22.79;51.09
41254;BME280;26987;59.928;30.306;2023-07-13T12:56:27;100379.44;;;22.65;51.69
41254;BME280;26987;59.928;30.306;2023-07-13T12:58:58;100368.09;;;22.58;50.80